Flight Track Log - Related Links

Times and Time Zones

All times are in EDT time to prevent confusion due to time zone crossing. See the USC105 flight status page for this flight to view local times or setup timezone preferences in your user account.


Time Position Orientation Groundspeed Altitude Reporting Facility
EDT Latitude Longitude Course Direction KTS MPH feet Rate Location/Type
Wed 05:38:34 41.8833 -88.2333 143° Southeast 127 146 2,100  Level Chicago TRACON
Wed 05:39:29 41.8667 -88.2167 143° Southeast 106 122 3,300 1,187 Climbing Chicago TRACON
Wed 05:40:05 41.8525 -88.1961 133° Southeast 107 123 3,900 1,063 Climbing Chicago Center
Wed 05:41:05 41.8336 -88.1619 127° Southeast 109 125 5,000 1,100 Climbing Chicago Center
Wed 05:42:05 41.8386 -88.1142 82° East 129 148 6,100 893 Climbing Chicago Center
Wed 05:43:06 41.8436 -88.0631 83° East 135 155 6,800 397 Climbing Chicago Center
Wed 05:44:06 41.8511 -88.0000 81° East 159 183 6,900 99 Climbing Chicago Center
Wed 05:45:07 41.8575 -87.9322 83° East 177 204 7,000 50 Climbing Chicago Center
Wed 05:46:07 41.8658 -87.8636 81° East 184 212 7,000  Level Chicago Center
Wed 05:46:35 41.8667 -87.8167 89° East 192 221 7,000 -68 Level Chicago TRACON
Wed 05:47:35 41.8833 -87.7500 71° East 204 235 6,900  Descending Chicago TRACON
Wed 05:48:29 41.8833 -87.6833 90° East 206 237 7,000  Climbing Chicago TRACON
Wed 05:49:35 41.9000 -87.6000 75° East 206 237 6,900  Descending Chicago TRACON
Wed 05:50:35 41.9000 -87.5167 90° East 210 242 7,000 52 Climbing Chicago TRACON
Wed 05:51:30 41.9167 -87.4500 71° East 209 241 7,000  Level Chicago TRACON
Wed 05:52:24 41.9167 -87.3833 90° East 206 237 7,000  Level Chicago TRACON
Wed 05:53:11 41.9211 -87.3339 83° East 205 236 7,000  Level Chicago Center
Wed 05:54:10 41.9283 -87.2592 83° East 201 231 7,000  Level Chicago Center
Wed 05:55:10 41.9361 -87.1861 82° East 198 228 7,000 -50 Level Chicago Center
Wed 05:56:11 41.9433 -87.1125 82° East 199 229 6,900  Descending Chicago Center
Wed 05:57:11 41.9492 -87.0386 84° East 200 230 7,000 50 Climbing Chicago Center
Wed 05:58:11 41.9569 -86.9647 82° East 200 230 7,000 -50 Level Chicago Center
Wed 05:59:12 41.9647 -86.8922 82° East 198 228 6,900 149 Descending Chicago Center
Wed 06:00:12 41.9714 -86.8197 83° East 197 227 7,300 446 Climbing Chicago Center
Wed 06:01:13 41.9775 -86.7525 83° East 184 212 7,800 744 Climbing Chicago Center
Wed 06:02:13 41.9850 -86.6803 82° East 180 207 8,800 600 Climbing Chicago Center
Wed 06:03:13 41.9908 -86.6092 84° East 191 220 9,000 99 Climbing Chicago Center
Wed 06:04:14 41.9992 -86.5319 82° East 205 236 9,000  Level Chicago Center
Wed 06:05:14 42.0056 -86.4506 84° East 217 250 9,000  Level Chicago Center
Wed 06:06:14 42.0144 -86.3683 82° East 222 255 9,000 -50 Level Chicago Center
Wed 06:07:15 42.0211 -86.2850 84° East 225 259 8,900 -50 Descending Chicago Center
Wed 06:08:15 42.0292 -86.2017 83° East 226 260 8,900  Level Chicago Center
Wed 06:10:16 42.0447 -86.0372 83° East 221 254 8,900  Level Chicago Center
Wed 06:11:16 42.0511 -85.9558 84° East 219 252 8,900  Level Chicago Center
Wed 06:12:17 42.0581 -85.8733 84° East 221 254 8,900 50 Level Chicago Center
Wed 06:13:17 42.0656 -85.7925 83° East 219 252 9,000  Climbing Chicago Center
Wed 06:14:18 42.0725 -85.7108 83° East 219 252 8,900 -50 Descending Chicago Center
Wed 06:15:18 42.0797 -85.6289 83° East 221 254 8,900  Level Chicago Center
Wed 06:16:18 42.0867 -85.5486 83° East 217 250 8,900  Level Chicago Center
Wed 06:17:19 42.0936 -85.4650 84° East 222 255 8,900 50 Level Chicago Center
Wed 06:18:19 42.1008 -85.3817 83° East 224 258 9,000 50 Climbing Chicago Center
Wed 06:19:20 42.1078 -85.2997 83° East 221 254 9,000 -50 Level Chicago Center
Wed 06:20:20 42.1150 -85.2167 83° East 223 257 8,900  Descending Chicago Center
Wed 06:21:21 42.1214 -85.1356 84° East 220 253 9,000  Climbing Chicago Center
Wed 06:22:21 42.1286 -85.0528 83° East 220 253 8,900 -50 Descending Chicago Center
Wed 06:23:22 42.1347 -84.9700 84° East 221 254 8,900  Level Chicago Center
Wed 06:24:22 42.1419 -84.8864 83° East 224 258 8,900  Level Chicago Center
Wed 06:25:22 42.1475 -84.8047 85° East 220 253 8,900  Level Chicago Center
Wed 06:26:23 42.1550 -84.7075 84° East 219 252 8,900 -298 Level Chicago Center
Wed 06:27:23 42.1622 -84.6219 83° East 225 259 8,300 -645 Descending Chicago Center
Wed 06:28:24 42.1689 -84.5339 84° East 234 269 7,600 -706 Descending Chicago Center
Wed 06:29:05 42.1733 -84.4778 84° East 235 270 7,100 -955 Descending Cleveland Center
Wed 06:30:36 42.1817 -84.3494 85° East 224 258 5,500 -869 Descending Cleveland Center
Wed 06:31:30 42.1883 -84.2769 83° East 218 251 5,000 -261 Descending Cleveland Center
Wed 06:32:31 42.1947 -84.2044 83° East 203 234 5,000  Level Cleveland Center
Wed 06:33:32 42.1969 -84.1344 88° East 184 212 5,000  Level Cleveland Center
Wed 06:34:26 42.2031 -84.0703 83° East 186 214 5,000 -55 Level Cleveland Center
Wed 06:35:21 42.2069 -84.0061 85° East 186 214 4,900 -417 Descending Cleveland Center
Wed 06:36:21 42.2028 -83.9358 95° East 190 219 4,200 -793 Descending Cleveland Center
Wed 06:37:22 42.2006 -83.8683 93° East 186 214 3,300 -645 Descending Cleveland Center
Wed 06:38:22 42.2025 -83.8039 88° East 162 186 2,900 -545 Descending Cleveland Center
Wed 06:39:23 42.2083 -83.7453 82° East 158 182 2,200 -492 Descending Cleveland Center
Wed 06:40:24 42.2097 -83.6922 88° East 147 169 1,900 -248 Descending Cleveland Center
Wed 06:41:24 42.2278 -83.6425 64° Northeast 140 161 1,700 -189 Descending Cleveland Center
Wed 06:42:31 42.2436 -83.5928 67° East 111 128 1,500 1,653 Descending Cleveland Center
Wed 06:44:40 42.1667 -84.4833 264° West 231 266 7,100 1,313 Climbing Chicago TRACON
Wed 06:46:47 42.1667 -84.4833 217° Southwest 231 266 7,100  Level Chicago TRACON

Login

Don't have an account? Register now (free) for customized features, flight alerts, and more!